sensor_id;sensor_type;location;lat;lon;timestamp;temperature;humidity
67141;DHT22;54058;52.010;5.546;2023-01-19T00:00:06;4.20;91.60
67141;DHT22;54058;52.010;5.546;2023-01-19T00:02:36;4.20;91.60
67141;DHT22;54058;52.010;5.546;2023-01-19T00:05:03;4.20;91.60
67141;DHT22;54058;52.010;5.546;2023-01-19T00:07:32;4.20;91.60
67141;DHT22;54058;52.010;5.546;2023-01-19T00:09:58;4.20;91.50
67141;DHT22;54058;52.010;5.546;2023-01-19T00:12:24;4.30;91.60
67141;DHT22;54058;52.010;5.546;2023-01-19T00:14:50;4.30;91.70
67141;DHT22;54058;52.010;5.546;2023-01-19T00:17:16;4.20;91.60
67141;DHT22;54058;52.010;5.546;2023-01-19T00:19:41;4.30;91.90
67141;DHT22;54058;52.010;5.546;2023-01-19T00:22:07;4.30;91.70
67141;DHT22;54058;52.010;5.546;2023-01-19T00:24:33;4.30;91.70
67141;DHT22;54058;52.010;5.546;2023-01-19T00:26:59;4.30;91.70
67141;DHT22;54058;52.010;5.546;2023-01-19T00:29:26;4.30;91.70
67141;DHT22;54058;52.010;5.546;2023-01-19T00:31:55;4.40;91.70
67141;DHT22;54058;52.010;5.546;2023-01-19T00:34:20;4.40;91.70
67141;DHT22;54058;52.010;5.546;2023-01-19T00:36:46;4.50;91.60
67141;DHT22;54058;52.010;5.546;2023-01-19T00:39:12;4.40;91.60
67141;DHT22;54058;52.010;5.546;2023-01-19T00:41:37;4.40;91.70
67141;DHT22;54058;52.010;5.546;2023-01-19T00:44:21;4.40;91.70
67141;DHT22;54058;52.010;5.546;2023-01-19T00:46:47;4.40;91.70
67141;DHT22;54058;52.010;5.546;2023-01-19T00:49:12;4.40;91.70
67141;DHT22;54058;52.010;5.546;2023-01-19T00:51:38;4.40;91.70
67141;DHT22;54058;52.010;5.546;2023-01-19T00:54:04;4.40;91.70
67141;DHT22;54058;52.010;5.546;2023-01-19T00:56:33;4.40;91.70
67141;DHT22;54058;52.010;5.546;2023-01-19T00:58:59;4.40;91.70
67141;DHT22;54058;52.010;5.546;2023-01-19T01:01:25;4.40;91.80
67141;DHT22;54058;52.010;5.546;2023-01-19T01:03:50;4.40;91.70
67141;DHT22;54058;52.010;5.546;2023-01-19T01:06:18;4.50;91.80
67141;DHT22;54058;52.010;5.546;2023-01-19T01:08:44;4.50;91.70
67141;DHT22;54058;52.010;5.546;2023-01-19T01:11:09;4.50;91.80
67141;DHT22;54058;52.010;5.546;2023-01-19T01:13:35;4.50;91.70
67141;DHT22;54058;52.010;5.546;2023-01-19T01:16:01;4.40;91.70
67141;DHT22;54058;52.010;5.546;2023-01-19T01:18:27;4.40;91.80
67141;DHT22;54058;52.010;5.546;2023-01-19T01:21:00;4.40;91.90
67141;DHT22;54058;52.010;5.546;2023-01-19T01:23:25;4.40;91.90
67141;DHT22;54058;52.010;5.546;2023-01-19T01:25:51;4.40;91.90
67141;DHT22;54058;52.010;5.546;2023-01-19T01:28:17;4.30;91.80
67141;DHT22;54058;52.010;5.546;2023-01-19T01:30:42;4.30;91.90
67141;DHT22;54058;52.010;5.546;2023-01-19T01:33:08;4.30;91.90
67141;DHT22;54058;52.010;5.546;2023-01-19T01:35:36;4.20;91.90
67141;DHT22;54058;52.010;5.546;2023-01-19T01:38:01;4.20;92.00
67141;DHT22;54058;52.010;5.546;2023-01-19T01:40:27;4.20;91.90
67141;DHT22;54058;52.010;5.546;2023-01-19T01:42:53;4.10;91.90
67141;DHT22;54058;52.010;5.546;2023-01-19T01:47:56;4.10;91.90
67141;DHT22;54058;52.010;5.546;2023-01-19T01:50:25;4.00;91.90
67141;DHT22;54058;52.010;5.546;2023-01-19T01:52:56;4.00;92.00
67141;DHT22;54058;52.010;5.546;2023-01-19T01:55:23;3.90;91.90
67141;DHT22;54058;52.010;5.546;2023-01-19T01:57:53;3.80;91.90
67141;DHT22;54058;52.010;5.546;2023-01-19T02:00:22;3.70;91.80
67141;DHT22;54058;52.010;5.546;2023-01-19T02:02:48;3.70;91.90
67141;DHT22;54058;52.010;5.546;2023-01-19T02:05:35;3.70;91.90
67141;DHT22;54058;52.010;5.546;2023-01-19T02:08:29;3.70;91.90
67141;DHT22;54058;52.010;5.546;2023-01-19T02:11:15;3.70;92.00
67141;DHT22;54058;52.010;5.546;2023-01-19T02:14:03;3.70;92.10
67141;DHT22;54058;52.010;5.546;2023-01-19T02:16:29;3.70;92.10
67141;DHT22;54058;52.010;5.546;2023-01-19T02:18:56;3.70;92.10
67141;DHT22;54058;52.010;5.546;2023-01-19T02:22:01;3.70;92.10
67141;DHT22;54058;52.010;5.546;2023-01-19T02:24:27;3.80;92.10
67141;DHT22;54058;52.010;5.546;2023-01-19T02:26:54;3.70;92.00
67141;DHT22;54058;52.010;5.546;2023-01-19T02:29:22;3.70;92.00
67141;DHT22;54058;52.010;5.546;2023-01-19T02:31:49;3.80;92.10
67141;DHT22;54058;52.010;5.546;2023-01-19T02:34:17;3.80;92.10
67141;DHT22;54058;52.010;5.546;2023-01-19T02:36:53;3.90;92.10
67141;DHT22;54058;52.010;5.546;2023-01-19T02:39:36;3.90;92.00
67141;DHT22;54058;52.010;5.546;2023-01-19T02:42:05;3.90;92.10
67141;DHT22;54058;52.010;5.546;2023-01-19T02:44:34;4.00;92.10
67141;DHT22;54058;52.010;5.546;2023-01-19T02:47:00;4.00;92.10
67141;DHT22;54058;52.010;5.546;2023-01-19T02:49:27;4.00;92.10
67141;DHT22;54058;52.010;5.546;2023-01-19T02:51:54;4.00;92.10
67141;DHT22;54058;52.010;5.546;2023-01-19T02:57:20;4.00;92.20
67141;DHT22;54058;52.010;5.546;2023-01-19T03:02:35;4.00;92.40
67141;DHT22;54058;52.010;5.546;2023-01-19T03:13:53;4.00;92.60
67141;DHT22;54058;52.010;5.546;2023-01-19T03:16:22;4.00;92.50
67141;DHT22;54058;52.010;5.546;2023-01-19T03:18:55;4.10;92.60
67141;DHT22;54058;52.010;5.546;2023-01-19T03:21:27;4.10;92.50
67141;DHT22;54058;52.010;5.546;2023-01-19T03:23:57;4.10;92.50
67141;DHT22;54058;52.010;5.546;2023-01-19T03:26:28;4.10;92.50
67141;DHT22;54058;52.010;5.546;2023-01-19T03:28:58;4.20;92.40
67141;DHT22;54058;52.010;5.546;2023-01-19T03:31:28;4.20;92.50
67141;DHT22;54058;52.010;5.546;2023-01-19T03:34:04;4.20;92.50
67141;DHT22;54058;52.010;5.546;2023-01-19T03:36:39;4.20;92.40
67141;DHT22;54058;52.010;5.546;2023-01-19T03:39:07;4.20;92.50
67141;DHT22;54058;52.010;5.546;2023-01-19T03:41:34;4.20;92.50
67141;DHT22;54058;52.010;5.546;2023-01-19T03:44:01;4.20;92.50
67141;DHT22;54058;52.010;5.546;2023-01-19T03:46:27;4.20;92.50
67141;DHT22;54058;52.010;5.546;2023-01-19T03:48:54;4.20;92.40
67141;DHT22;54058;52.010;5.546;2023-01-19T03:51:20;4.20;92.40
67141;DHT22;54058;52.010;5.546;2023-01-19T03:53:46;4.30;92.50
67141;DHT22;54058;52.010;5.546;2023-01-19T03:56:22;4.30;92.60
67141;DHT22;54058;52.010;5.546;2023-01-19T03:58:49;4.20;92.50
67141;DHT22;54058;52.010;5.546;2023-01-19T04:01:15;4.30;92.50
67141;DHT22;54058;52.010;5.546;2023-01-19T04:03:41;4.30;92.50
67141;DHT22;54058;52.010;5.546;2023-01-19T04:06:08;4.20;92.40
67141;DHT22;54058;52.010;5.546;2023-01-19T04:08:35;4.20;92.40
67141;DHT22;54058;52.010;5.546;2023-01-19T04:11:00;4.20;92.50
67141;DHT22;54058;52.010;5.546;2023-01-19T04:13:26;4.20;92.50
67141;DHT22;54058;52.010;5.546;2023-01-19T04:16:04;4.10;92.50
67141;DHT22;54058;52.010;5.546;2023-01-19T04:18:31;4.10;92.50
67141;DHT22;54058;52.010;5.546;2023-01-19T04:21:05;4.00;92.50
67141;DHT22;54058;52.010;5.546;2023-01-19T04:23:31;4.00;92.50
67141;DHT22;54058;52.010;5.546;2023-01-19T04:26:05;3.90;92.50
67141;DHT22;54058;52.010;5.546;2023-01-19T04:28:31;4.00;92.50
67141;DHT22;54058;52.010;5.546;2023-01-19T04:30:58;3.90;92.60
67141;DHT22;54058;52.010;5.546;2023-01-19T04:33:23;4.00;92.60
67141;DHT22;54058;52.010;5.546;2023-01-19T04:35:50;3.90;92.50
67141;DHT22;54058;52.010;5.546;2023-01-19T04:38:17;3.90;92.50
67141;DHT22;54058;52.010;5.546;2023-01-19T04:40:44;3.90;92.60
67141;DHT22;54058;52.010;5.546;2023-01-19T04:43:10;3.80;92.50
67141;DHT22;54058;52.010;5.546;2023-01-19T04:45:36;3.70;92.50
67141;DHT22;54058;52.010;5.546;2023-01-19T04:48:02;3.60;92.60
67141;DHT22;54058;52.010;5.546;2023-01-19T04:50:29;3.70;92.80
67141;DHT22;54058;52.010;5.546;2023-01-19T04:52:55;3.70;92.70
67141;DHT22;54058;52.010;5.546;2023-01-19T04:55:21;3.70;92.70
67141;DHT22;54058;52.010;5.546;2023-01-19T04:57:46;3.70;92.70
67141;DHT22;54058;52.010;5.546;2023-01-19T05:00:12;3.70;92.60
67141;DHT22;54058;52.010;5.546;2023-01-19T05:02:38;3.60;92.60
67141;DHT22;54058;52.010;5.546;2023-01-19T05:05:04;3.60;92.70
67141;DHT22;54058;52.010;5.546;2023-01-19T05:07:30;3.60;92.60
67141;DHT22;54058;52.010;5.546;2023-01-19T05:09:55;3.60;92.60
67141;DHT22;54058;52.010;5.546;2023-01-19T05:12:21;3.60;92.70
67141;DHT22;54058;52.010;5.546;2023-01-19T05:14:47;3.60;92.70
67141;DHT22;54058;52.010;5.546;2023-01-19T05:17:12;3.60;92.70
67141;DHT22;54058;52.010;5.546;2023-01-19T05:19:38;3.60;92.80
67141;DHT22;54058;52.010;5.546;2023-01-19T05:22:04;3.60;92.80
67141;DHT22;54058;52.010;5.546;2023-01-19T05:24:30;3.60;92.70
67141;DHT22;54058;52.010;5.546;2023-01-19T05:26:56;3.60;92.70
67141;DHT22;54058;52.010;5.546;2023-01-19T05:29:22;3.60;92.70
67141;DHT22;54058;52.010;5.546;2023-01-19T05:31:47;3.60;92.80
67141;DHT22;54058;52.010;5.546;2023-01-19T05:34:13;3.70;92.80
67141;DHT22;54058;52.010;5.546;2023-01-19T05:36:40;3.70;92.80
67141;DHT22;54058;52.010;5.546;2023-01-19T05:39:06;3.70;92.70
67141;DHT22;54058;52.010;5.546;2023-01-19T05:41:31;3.70;92.80
67141;DHT22;54058;52.010;5.546;2023-01-19T05:43:57;3.70;92.70
67141;DHT22;54058;52.010;5.546;2023-01-19T05:46:23;3.70;92.70
67141;DHT22;54058;52.010;5.546;2023-01-19T05:48:49;3.70;92.60
67141;DHT22;54058;52.010;5.546;2023-01-19T05:51:14;3.70;92.70
67141;DHT22;54058;52.010;5.546;2023-01-19T05:53:40;3.70;92.70
67141;DHT22;54058;52.010;5.546;2023-01-19T05:56:07;3.80;92.70
67141;DHT22;54058;52.010;5.546;2023-01-19T05:58:33;3.80;92.60
67141;DHT22;54058;52.010;5.546;2023-01-19T06:01:06;3.80;92.80
67141;DHT22;54058;52.010;5.546;2023-01-19T06:03:33;3.80;92.60
67141;DHT22;54058;52.010;5.546;2023-01-19T06:05:59;3.80;92.50
67141;DHT22;54058;52.010;5.546;2023-01-19T06:08:25;3.80;92.50
67141;DHT22;54058;52.010;5.546;2023-01-19T06:10:51;3.90;92.60
67141;DHT22;54058;52.010;5.546;2023-01-19T06:13:16;3.90;92.50
67141;DHT22;54058;52.010;5.546;2023-01-19T06:15:42;3.90;92.50
67141;DHT22;54058;52.010;5.546;2023-01-19T06:18:09;3.90;92.60
67141;DHT22;54058;52.010;5.546;2023-01-19T06:20:35;4.00;92.60
67141;DHT22;54058;52.010;5.546;2023-01-19T06:23:01;4.00;92.60
67141;DHT22;54058;52.010;5.546;2023-01-19T06:25:27;4.00;92.60
67141;DHT22;54058;52.010;5.546;2023-01-19T06:27:53;4.00;92.60
67141;DHT22;54058;52.010;5.546;2023-01-19T06:30:19;4.00;92.60
67141;DHT22;54058;52.010;5.546;2023-01-19T06:32:45;4.00;92.60
67141;DHT22;54058;52.010;5.546;2023-01-19T06:35:12;4.00;92.50
67141;DHT22;54058;52.010;5.546;2023-01-19T06:37:37;4.00;92.50
67141;DHT22;54058;52.010;5.546;2023-01-19T06:40:03;4.00;92.60
67141;DHT22;54058;52.010;5.546;2023-01-19T06:42:29;4.00;92.50
67141;DHT22;54058;52.010;5.546;2023-01-19T06:44:54;4.00;92.50
67141;DHT22;54058;52.010;5.546;2023-01-19T06:47:20;4.00;92.50
67141;DHT22;54058;52.010;5.546;2023-01-19T06:49:46;4.00;92.50
67141;DHT22;54058;52.010;5.546;2023-01-19T06:52:12;4.00;92.60
67141;DHT22;54058;52.010;5.546;2023-01-19T06:54:42;4.10;92.60
67141;DHT22;54058;52.010;5.546;2023-01-19T06:57:09;4.10;92.50
67141;DHT22;54058;52.010;5.546;2023-01-19T06:59:39;4.10;92.50
67141;DHT22;54058;52.010;5.546;2023-01-19T07:02:05;4.10;92.80
67141;DHT22;54058;52.010;5.546;2023-01-19T07:04:31;4.10;92.50
67141;DHT22;54058;52.010;5.546;2023-01-19T07:06:56;4.10;92.50
67141;DHT22;54058;52.010;5.546;2023-01-19T07:09:22;4.10;92.50
67141;DHT22;54058;52.010;5.546;2023-01-19T07:11:50;4.10;92.50
67141;DHT22;54058;52.010;5.546;2023-01-19T07:14:15;4.10;92.50
67141;DHT22;54058;52.010;5.546;2023-01-19T07:16:41;3.90;92.50
67141;DHT22;54058;52.010;5.546;2023-01-19T07:19:08;3.90;92.70
67141;DHT22;54058;52.010;5.546;2023-01-19T07:21:35;4.00;92.80
67141;DHT22;54058;52.010;5.546;2023-01-19T07:24:01;3.90;92.70
67141;DHT22;54058;52.010;5.546;2023-01-19T07:26:27;3.80;92.70
67141;DHT22;54058;52.010;5.546;2023-01-19T07:28:53;3.90;93.00
67141;DHT22;54058;52.010;5.546;2023-01-19T07:31:19;4.00;92.90
67141;DHT22;54058;52.010;5.546;2023-01-19T07:33:45;4.00;92.80
67141;DHT22;54058;52.010;5.546;2023-01-19T07:36:11;4.00;92.70
67141;DHT22;54058;52.010;5.546;2023-01-19T07:38:37;4.10;93.00
67141;DHT22;54058;52.010;5.546;2023-01-19T07:41:04;4.10;92.80
67141;DHT22;54058;52.010;5.546;2023-01-19T07:43:30;4.20;92.70
67141;DHT22;54058;52.010;5.546;2023-01-19T07:45:57;4.20;92.80
67141;DHT22;54058;52.010;5.546;2023-01-19T07:48:24;4.20;92.70
67141;DHT22;54058;52.010;5.546;2023-01-19T07:50:49;4.20;92.60
67141;DHT22;54058;52.010;5.546;2023-01-19T07:53:15;4.20;92.60
67141;DHT22;54058;52.010;5.546;2023-01-19T07:55:41;4.10;92.60
67141;DHT22;54058;52.010;5.546;2023-01-19T07:58:07;4.10;92.60
67141;DHT22;54058;52.010;5.546;2023-01-19T08:00:34;4.10;92.60
67141;DHT22;54058;52.010;5.546;2023-01-19T08:03:01;4.10;92.60
67141;DHT22;54058;52.010;5.546;2023-01-19T08:05:27;4.20;92.60
67141;DHT22;54058;52.010;5.546;2023-01-19T08:07:57;4.20;92.60
67141;DHT22;54058;52.010;5.546;2023-01-19T08:10:24;4.10;92.50
67141;DHT22;54058;52.010;5.546;2023-01-19T08:12:52;4.10;92.50
67141;DHT22;54058;52.010;5.546;2023-01-19T08:15:20;4.10;92.50
67141;DHT22;54058;52.010;5.546;2023-01-19T08:17:58;4.10;92.50
67141;DHT22;54058;52.010;5.546;2023-01-19T08:20:25;4.10;92.50
67141;DHT22;54058;52.010;5.546;2023-01-19T08:22:51;4.10;92.50
67141;DHT22;54058;52.010;5.546;2023-01-19T08:25:45;4.10;92.50
67141;DHT22;54058;52.010;5.546;2023-01-19T08:28:12;4.10;92.40
67141;DHT22;54058;52.010;5.546;2023-01-19T08:30:39;4.10;92.40
67141;DHT22;54058;52.010;5.546;2023-01-19T08:33:05;4.00;92.30
67141;DHT22;54058;52.010;5.546;2023-01-19T08:35:39;3.90;92.30
67141;DHT22;54058;52.010;5.546;2023-01-19T08:38:06;3.90;92.50
67141;DHT22;54058;52.010;5.546;2023-01-19T08:40:37;3.90;92.50
67141;DHT22;54058;52.010;5.546;2023-01-19T08:43:05;3.90;92.50
67141;DHT22;54058;52.010;5.546;2023-01-19T08:45:33;3.90;92.50
67141;DHT22;54058;52.010;5.546;2023-01-19T08:47:59;3.90;92.50
67141;DHT22;54058;52.010;5.546;2023-01-19T08:50:26;3.90;92.60
67141;DHT22;54058;52.010;5.546;2023-01-19T08:52:55;3.80;92.50
67141;DHT22;54058;52.010;5.546;2023-01-19T08:55:22;3.90;92.60
67141;DHT22;54058;52.010;5.546;2023-01-19T08:57:52;3.90;92.50
67141;DHT22;54058;52.010;5.546;2023-01-19T09:00:19;3.90;92.60
67141;DHT22;54058;52.010;5.546;2023-01-19T09:02:45;3.90;92.60
67141;DHT22;54058;52.010;5.546;2023-01-19T09:05:11;4.00;92.70
67141;DHT22;54058;52.010;5.546;2023-01-19T09:07:37;4.10;92.70
67141;DHT22;54058;52.010;5.546;2023-01-19T09:10:04;4.10;92.60
67141;DHT22;54058;52.010;5.546;2023-01-19T09:12:30;4.20;92.60
67141;DHT22;54058;52.010;5.546;2023-01-19T09:14:55;4.20;92.60
67141;DHT22;54058;52.010;5.546;2023-01-19T09:17:21;4.20;92.60
67141;DHT22;54058;52.010;5.546;2023-01-19T09:19:47;4.30;92.60
67141;DHT22;54058;52.010;5.546;2023-01-19T09:22:13;4.40;92.60
67141;DHT22;54058;52.010;5.546;2023-01-19T09:24:38;4.50;92.60
67141;DHT22;54058;52.010;5.546;2023-01-19T09:27:04;4.60;92.60
67141;DHT22;54058;52.010;5.546;2023-01-19T09:29:29;4.70;92.90
67141;DHT22;54058;52.010;5.546;2023-01-19T09:31:55;4.80;92.60
67141;DHT22;54058;52.010;5.546;2023-01-19T09:34:22;4.90;92.60
67141;DHT22;54058;52.010;5.546;2023-01-19T09:36:50;5.00;92.70
67141;DHT22;54058;52.010;5.546;2023-01-19T09:39:16;5.10;92.70
67141;DHT22;54058;52.010;5.546;2023-01-19T09:41:46;5.10;92.60
67141;DHT22;54058;52.010;5.546;2023-01-19T09:44:23;5.20;92.60
67141;DHT22;54058;52.010;5.546;2023-01-19T09:46:52;5.30;92.60
67141;DHT22;54058;52.010;5.546;2023-01-19T09:49:33;5.30;92.50
67141;DHT22;54058;52.010;5.546;2023-01-19T09:52:01;5.30;92.60
67141;DHT22;54058;52.010;5.546;2023-01-19T09:54:47;5.40;92.50
67141;DHT22;54058;52.010;5.546;2023-01-19T09:57:14;5.40;92.50
67141;DHT22;54058;52.010;5.546;2023-01-19T09:59:40;5.40;92.30
67141;DHT22;54058;52.010;5.546;2023-01-19T10:02:32;5.40;92.20
67141;DHT22;54058;52.010;5.546;2023-01-19T10:05:04;5.50;92.20
67141;DHT22;54058;52.010;5.546;2023-01-19T10:07:32;5.50;92.30
67141;DHT22;54058;52.010;5.546;2023-01-19T10:10:13;5.50;92.30
67141;DHT22;54058;52.010;5.546;2023-01-19T10:18:18;5.60;92.30
67141;DHT22;54058;52.010;5.546;2023-01-19T10:20:55;5.60;92.30
67141;DHT22;54058;52.010;5.546;2023-01-19T10:23:34;5.60;92.30
67141;DHT22;54058;52.010;5.546;2023-01-19T10:26:12;5.70;92.20
67141;DHT22;54058;52.010;5.546;2023-01-19T10:28:40;5.70;92.20
67141;DHT22;54058;52.010;5.546;2023-01-19T10:31:06;5.70;92.30
67141;DHT22;54058;52.010;5.546;2023-01-19T10:33:33;5.70;92.30
67141;DHT22;54058;52.010;5.546;2023-01-19T10:36:03;5.70;92.00
67141;DHT22;54058;52.010;5.546;2023-01-19T10:38:29;5.80;92.20
67141;DHT22;54058;52.010;5.546;2023-01-19T10:41:02;5.80;92.30
67141;DHT22;54058;52.010;5.546;2023-01-19T10:43:45;5.90;92.30
67141;DHT22;54058;52.010;5.546;2023-01-19T10:46:46;5.80;92.10
67141;DHT22;54058;52.010;5.546;2023-01-19T10:49:27;5.90;92.20
67141;DHT22;54058;52.010;5.546;2023-01-19T10:51:57;5.90;92.10
67141;DHT22;54058;52.010;5.546;2023-01-19T10:54:23;5.90;92.30
67141;DHT22;54058;52.010;5.546;2023-01-19T10:57:03;5.90;92.10
67141;DHT22;54058;52.010;5.546;2023-01-19T10:59:38;5.90;92.00
67141;DHT22;54058;52.010;5.546;2023-01-19T11:02:30;5.90;92.00
67141;DHT22;54058;52.010;5.546;2023-01-19T11:04:58;6.00;92.10
67141;DHT22;54058;52.010;5.546;2023-01-19T11:07:29;6.00;92.10
67141;DHT22;54058;52.010;5.546;2023-01-19T11:10:22;6.00;91.90
67141;DHT22;54058;52.010;5.546;2023-01-19T11:15:55;6.10;92.10
67141;DHT22;54058;52.010;5.546;2023-01-19T11:18:26;6.10;91.90
67141;DHT22;54058;52.010;5.546;2023-01-19T11:20:54;6.10;92.00
67141;DHT22;54058;52.010;5.546;2023-01-19T11:23:27;6.10;92.00
67141;DHT22;54058;52.010;5.546;2023-01-19T11:25:56;6.10;92.00
67141;DHT22;54058;52.010;5.546;2023-01-19T11:28:36;6.10;92.00
67141;DHT22;54058;52.010;5.546;2023-01-19T11:33:50;6.10;92.00
67141;DHT22;54058;52.010;5.546;2023-01-19T11:36:27;6.10;92.10
67141;DHT22;54058;52.010;5.546;2023-01-19T11:38:56;6.20;92.10
67141;DHT22;54058;52.010;5.546;2023-01-19T11:41:25;6.20;92.00
67141;DHT22;54058;52.010;5.546;2023-01-19T11:43:56;6.30;92.10
67141;DHT22;54058;52.010;5.546;2023-01-19T11:46:25;6.30;92.00
67141;DHT22;54058;52.010;5.546;2023-01-19T11:48:55;6.30;92.00
67141;DHT22;54058;52.010;5.546;2023-01-19T11:51:41;6.30;91.80
67141;DHT22;54058;52.010;5.546;2023-01-19T11:54:18;6.30;91.80
67141;DHT22;54058;52.010;5.546;2023-01-19T11:56:46;6.40;92.00
67141;DHT22;54058;52.010;5.546;2023-01-19T11:59:13;6.50;91.30
67141;DHT22;54058;52.010;5.546;2023-01-19T12:01:45;6.60;91.70
67141;DHT22;54058;52.010;5.546;2023-01-19T12:04:20;6.70;91.80
67141;DHT22;54058;52.010;5.546;2023-01-19T12:06:52;6.80;91.80
67141;DHT22;54058;52.010;5.546;2023-01-19T12:09:39;6.90;91.90
67141;DHT22;54058;52.010;5.546;2023-01-19T12:15:05;7.10;91.80
67141;DHT22;54058;52.010;5.546;2023-01-19T12:17:39;7.10;91.70
67141;DHT22;54058;52.010;5.546;2023-01-19T12:20:39;7.00;91.40
67141;DHT22;54058;52.010;5.546;2023-01-19T12:28:20;6.60;91.30
67141;DHT22;54058;52.010;5.546;2023-01-19T12:30:48;6.60;91.40
67141;DHT22;54058;52.010;5.546;2023-01-19T12:33:34;6.50;91.40
67141;DHT22;54058;52.010;5.546;2023-01-19T12:41:32;6.50;91.30
67141;DHT22;54058;52.010;5.546;2023-01-19T12:46:44;6.50;90.90
67141;DHT22;54058;52.010;5.546;2023-01-19T12:49:30;6.60;91.20
67141;DHT22;54058;52.010;5.546;2023-01-19T12:54:57;6.50;90.60
67141;DHT22;54058;52.010;5.546;2023-01-19T12:57:37;6.50;90.40
67141;DHT22;54058;52.010;5.546;2023-01-19T13:00:32;6.50;90.40
67141;DHT22;54058;52.010;5.546;2023-01-19T13:05:54;6.60;90.10
67141;DHT22;54058;52.010;5.546;2023-01-19T13:08:25;6.60;90.20
67141;DHT22;54058;52.010;5.546;2023-01-19T13:13:35;6.60;88.10
67141;DHT22;54058;52.010;5.546;2023-01-19T13:16:49;6.60;88.50
67141;DHT22;54058;52.010;5.546;2023-01-19T13:18:59;6.60;84.40
67141;DHT22;54058;52.010;5.546;2023-01-19T13:21:31;6.50;88.40
67141;DHT22;54058;52.010;5.546;2023-01-19T13:24:05;6.50;88.50
67141;DHT22;54058;52.010;5.546;2023-01-19T13:26:36;6.50;88.90
67141;DHT22;54058;52.010;5.546;2023-01-19T13:31:52;6.40;89.20
67141;DHT22;54058;52.010;5.546;2023-01-19T13:34:23;6.30;88.30
67141;DHT22;54058;52.010;5.546;2023-01-19T13:36:52;6.20;88.40
67141;DHT22;54058;52.010;5.546;2023-01-19T13:39:30;6.30;89.40
67141;DHT22;54058;52.010;5.546;2023-01-19T13:42:01;6.20;88.90
67141;DHT22;54058;52.010;5.546;2023-01-19T13:44:35;6.20;88.10
67141;DHT22;54058;52.010;5.546;2023-01-19T13:47:11;6.20;87.90
67141;DHT22;54058;52.010;5.546;2023-01-19T13:49:42;6.10;87.70
67141;DHT22;54058;52.010;5.546;2023-01-19T13:52:13;6.00;87.80
67141;DHT22;54058;52.010;5.546;2023-01-19T13:54:59;6.00;88.50
67141;DHT22;54058;52.010;5.546;2023-01-19T13:57:44;6.00;88.30
67141;DHT22;54058;52.010;5.546;2023-01-19T14:02:40;5.90;87.70
67141;DHT22;54058;52.010;5.546;2023-01-19T14:05:21;5.90;87.70
67141;DHT22;54058;52.010;5.546;2023-01-19T14:07:47;5.90;88.00
67141;DHT22;54058;52.010;5.546;2023-01-19T14:10:23;6.00;88.50
67141;DHT22;54058;52.010;5.546;2023-01-19T14:12:57;6.00;88.40
67141;DHT22;54058;52.010;5.546;2023-01-19T14:15:23;6.10;88.70
67141;DHT22;54058;52.010;5.546;2023-01-19T14:20:32;6.20;87.90
67141;DHT22;54058;52.010;5.546;2023-01-19T14:23:01;6.20;88.20
67141;DHT22;54058;52.010;5.546;2023-01-19T14:25:32;6.30;88.20
67141;DHT22;54058;52.010;5.546;2023-01-19T14:28:27;6.30;87.10
67141;DHT22;54058;52.010;5.546;2023-01-19T14:31:36;6.40;87.40
67141;DHT22;54058;52.010;5.546;2023-01-19T14:33:57;6.40;87.70
67141;DHT22;54058;52.010;5.546;2023-01-19T14:36:35;6.50;85.30
67141;DHT22;54058;52.010;5.546;2023-01-19T14:39:04;6.40;85.90
67141;DHT22;54058;52.010;5.546;2023-01-19T14:41:36;6.30;87.00
67141;DHT22;54058;52.010;5.546;2023-01-19T14:44:10;6.30;87.10
67141;DHT22;54058;52.010;5.546;2023-01-19T14:46:44;6.20;87.30
67141;DHT22;54058;52.010;5.546;2023-01-19T14:49:37;6.10;83.70
67141;DHT22;54058;52.010;5.546;2023-01-19T14:52:20;6.10;87.20
67141;DHT22;54058;52.010;5.546;2023-01-19T14:54:49;6.00;86.70
67141;DHT22;54058;52.010;5.546;2023-01-19T14:57:15;6.00;87.90
67141;DHT22;54058;52.010;5.546;2023-01-19T14:59:41;6.00;88.00
67141;DHT22;54058;52.010;5.546;2023-01-19T15:02:11;6.00;87.90
67141;DHT22;54058;52.010;5.546;2023-01-19T15:04:37;5.90;88.20
67141;DHT22;54058;52.010;5.546;2023-01-19T15:07:03;6.00;88.30
67141;DHT22;54058;52.010;5.546;2023-01-19T15:09:28;6.00;88.40
67141;DHT22;54058;52.010;5.546;2023-01-19T15:11:54;5.90;87.90
67141;DHT22;54058;52.010;5.546;2023-01-19T15:14:20;5.90;87.80
67141;DHT22;54058;52.010;5.546;2023-01-19T15:16:47;5.90;88.00
67141;DHT22;54058;52.010;5.546;2023-01-19T15:19:14;5.80;87.90
67141;DHT22;54058;52.010;5.546;2023-01-19T15:21:40;5.70;88.10
67141;DHT22;54058;52.010;5.546;2023-01-19T15:24:10;5.70;88.20
67141;DHT22;54058;52.010;5.546;2023-01-19T15:26:38;5.70;88.60
67141;DHT22;54058;52.010;5.546;2023-01-19T15:29:24;5.70;88.40
67141;DHT22;54058;52.010;5.546;2023-01-19T15:31:50;5.70;88.40
67141;DHT22;54058;52.010;5.546;2023-01-19T15:34:16;5.60;88.40
67141;DHT22;54058;52.010;5.546;2023-01-19T15:36:41;5.60;88.60
67141;DHT22;54058;52.010;5.546;2023-01-19T15:39:08;5.60;88.70
67141;DHT22;54058;52.010;5.546;2023-01-19T15:41:37;5.60;88.80
67141;DHT22;54058;52.010;5.546;2023-01-19T15:44:04;5.50;88.80
67141;DHT22;54058;52.010;5.546;2023-01-19T15:46:31;5.50;88.60
67141;DHT22;54058;52.010;5.546;2023-01-19T15:48:56;5.50;88.60
67141;DHT22;54058;52.010;5.546;2023-01-19T15:51:24;5.40;88.70
67141;DHT22;54058;52.010;5.546;2023-01-19T15:53:50;5.30;88.70
67141;DHT22;54058;52.010;5.546;2023-01-19T15:58:44;5.20;88.80
67141;DHT22;54058;52.010;5.546;2023-01-19T16:01:17;5.20;88.90
67141;DHT22;54058;52.010;5.546;2023-01-19T16:03:43;5.20;89.00
67141;DHT22;54058;52.010;5.546;2023-01-19T16:06:09;5.10;89.00
67141;DHT22;54058;52.010;5.546;2023-01-19T16:08:36;5.10;89.10
67141;DHT22;54058;52.010;5.546;2023-01-19T16:11:07;5.00;89.10
67141;DHT22;54058;52.010;5.546;2023-01-19T16:13:33;5.00;89.90
67141;DHT22;54058;52.010;5.546;2023-01-19T16:16:03;5.00;89.60
67141;DHT22;54058;52.010;5.546;2023-01-19T16:18:29;4.90;89.50
67141;DHT22;54058;52.010;5.546;2023-01-19T16:20:55;4.90;89.60
67141;DHT22;54058;52.010;5.546;2023-01-19T16:23:20;4.90;89.60
67141;DHT22;54058;52.010;5.546;2023-01-19T16:26:06;4.80;89.50
67141;DHT22;54058;52.010;5.546;2023-01-19T16:28:34;4.70;89.30
67141;DHT22;54058;52.010;5.546;2023-01-19T16:31:00;4.60;89.70
67141;DHT22;54058;52.010;5.546;2023-01-19T16:33:25;4.60;89.20
67141;DHT22;54058;52.010;5.546;2023-01-19T16:35:51;4.50;89.70
67141;DHT22;54058;52.010;5.546;2023-01-19T16:38:17;4.50;89.70
67141;DHT22;54058;52.010;5.546;2023-01-19T16:40:46;4.50;89.90
67141;DHT22;54058;52.010;5.546;2023-01-19T16:43:12;4.40;90.00
67141;DHT22;54058;52.010;5.546;2023-01-19T16:45:59;4.40;90.00
67141;DHT22;54058;52.010;5.546;2023-01-19T16:48:26;4.30;90.00
67141;DHT22;54058;52.010;5.546;2023-01-19T16:51:00;4.30;89.90
67141;DHT22;54058;52.010;5.546;2023-01-19T16:53:27;4.20;90.10
67141;DHT22;54058;52.010;5.546;2023-01-19T16:55:54;4.20;89.90
67141;DHT22;54058;52.010;5.546;2023-01-19T16:58:20;4.20;90.00
67141;DHT22;54058;52.010;5.546;2023-01-19T17:00:45;4.20;90.00
67141;DHT22;54058;52.010;5.546;2023-01-19T17:03:11;4.20;90.00